sensor_id;sensor_type;location;lat;lon;timestamp;temperature;humidity
7894;DHT22;51343;51.396;6.656;2023-05-07T00:00:51;14.20;99.90
7894;DHT22;51343;51.396;6.656;2023-05-07T00:03:18;14.30;99.90
7894;DHT22;51343;51.396;6.656;2023-05-07T00:05:45;14.30;99.90
7894;DHT22;51343;51.396;6.656;2023-05-07T00:08:13;14.30;99.90
7894;DHT22;51343;51.396;6.656;2023-05-07T00:10:40;14.30;99.90
7894;DHT22;51343;51.396;6.656;2023-05-07T00:13:08;14.30;99.90
7894;DHT22;51343;51.396;6.656;2023-05-07T00:15:36;14.30;99.90
7894;DHT22;51343;51.396;6.656;2023-05-07T00:18:03;14.30;99.90
7894;DHT22;51343;51.396;6.656;2023-05-07T00:20:29;14.30;99.90
7894;DHT22;51343;51.396;6.656;2023-05-07T00:22:56;14.30;99.90
7894;DHT22;51343;51.396;6.656;2023-05-07T00:25:23;14.20;99.90
7894;DHT22;51343;51.396;6.656;2023-05-07T00:27:49;14.20;99.90
7894;DHT22;51343;51.396;6.656;2023-05-07T00:30:17;14.20;99.90
7894;DHT22;51343;51.396;6.656;2023-05-07T00:32:46;14.20;99.90
7894;DHT22;51343;51.396;6.656;2023-05-07T00:35:14;14.20;99.90
7894;DHT22;51343;51.396;6.656;2023-05-07T00:37:40;14.20;99.90
7894;DHT22;51343;51.396;6.656;2023-05-07T00:40:07;14.20;99.90
7894;DHT22;51343;51.396;6.656;2023-05-07T00:42:34;14.20;99.90
7894;DHT22;51343;51.396;6.656;2023-05-07T00:45:02;14.10;99.90
7894;DHT22;51343;51.396;6.656;2023-05-07T00:47:30;14.10;99.90
7894;DHT22;51343;51.396;6.656;2023-05-07T00:49:58;14.10;99.90
7894;DHT22;51343;51.396;6.656;2023-05-07T00:52:25;14.10;99.90
7894;DHT22;51343;51.396;6.656;2023-05-07T00:54:53;14.00;99.90
7894;DHT22;51343;51.396;6.656;2023-05-07T00:57:20;14.00;99.90
7894;DHT22;51343;51.396;6.656;2023-05-07T00:59:47;14.00;99.90
7894;DHT22;51343;51.396;6.656;2023-05-07T01:02:14;14.00;99.90
7894;DHT22;51343;51.396;6.656;2023-05-07T01:04:41;14.00;99.90
7894;DHT22;51343;51.396;6.656;2023-05-07T01:07:09;14.00;99.90
7894;DHT22;51343;51.396;6.656;2023-05-07T01:09:36;14.00;99.90
7894;DHT22;51343;51.396;6.656;2023-05-07T01:12:03;13.90;99.90
7894;DHT22;51343;51.396;6.656;2023-05-07T01:14:29;13.90;99.90
7894;DHT22;51343;51.396;6.656;2023-05-07T01:16:58;13.90;99.90
7894;DHT22;51343;51.396;6.656;2023-05-07T01:19:25;13.90;99.90
7894;DHT22;51343;51.396;6.656;2023-05-07T01:21:52;13.90;99.90
7894;DHT22;51343;51.396;6.656;2023-05-07T01:24:27;13.90;99.90
7894;DHT22;51343;51.396;6.656;2023-05-07T01:26:53;13.80;99.90
7894;DHT22;51343;51.396;6.656;2023-05-07T01:29:20;13.80;99.90
7894;DHT22;51343;51.396;6.656;2023-05-07T01:31:47;13.80;99.90
7894;DHT22;51343;51.396;6.656;2023-05-07T01:34:13;13.80;99.90
7894;DHT22;51343;51.396;6.656;2023-05-07T01:36:41;13.70;99.90
7894;DHT22;51343;51.396;6.656;2023-05-07T01:39:09;13.70;99.90
7894;DHT22;51343;51.396;6.656;2023-05-07T01:41:37;13.70;99.90
7894;DHT22;51343;51.396;6.656;2023-05-07T01:44:04;13.70;99.90
7894;DHT22;51343;51.396;6.656;2023-05-07T01:46:31;13.70;99.90
7894;DHT22;51343;51.396;6.656;2023-05-07T01:48:59;13.70;99.90
7894;DHT22;51343;51.396;6.656;2023-05-07T01:51:25;13.70;99.90
7894;DHT22;51343;51.396;6.656;2023-05-07T01:53:52;13.60;99.90
7894;DHT22;51343;51.396;6.656;2023-05-07T01:56:19;13.60;99.90
7894;DHT22;51343;51.396;6.656;2023-05-07T01:58:47;13.60;99.90
7894;DHT22;51343;51.396;6.656;2023-05-07T02:01:14;13.60;99.90
7894;DHT22;51343;51.396;6.656;2023-05-07T02:03:42;13.60;99.90
7894;DHT22;51343;51.396;6.656;2023-05-07T02:06:09;13.50;99.90
7894;DHT22;51343;51.396;6.656;2023-05-07T02:08:35;13.50;99.90
7894;DHT22;51343;51.396;6.656;2023-05-07T02:11:02;13.50;99.90
7894;DHT22;51343;51.396;6.656;2023-05-07T02:13:29;13.50;99.90
7894;DHT22;51343;51.396;6.656;2023-05-07T02:15:58;13.50;99.90
7894;DHT22;51343;51.396;6.656;2023-05-07T02:18:24;13.50;99.90
7894;DHT22;51343;51.396;6.656;2023-05-07T02:20:51;13.50;99.90
7894;DHT22;51343;51.396;6.656;2023-05-07T02:23:18;13.50;99.90
7894;DHT22;51343;51.396;6.656;2023-05-07T02:25:44;13.50;99.90
7894;DHT22;51343;51.396;6.656;2023-05-07T02:28:11;13.50;99.90
7894;DHT22;51343;51.396;6.656;2023-05-07T02:30:38;13.50;99.90
7894;DHT22;51343;51.396;6.656;2023-05-07T02:33:06;13.50;99.90
7894;DHT22;51343;51.396;6.656;2023-05-07T02:35:33;13.50;99.90
7894;DHT22;51343;51.396;6.656;2023-05-07T02:38:00;13.40;99.90
7894;DHT22;51343;51.396;6.656;2023-05-07T02:40:27;13.40;99.90
7894;DHT22;51343;51.396;6.656;2023-05-07T02:42:53;13.40;99.90
7894;DHT22;51343;51.396;6.656;2023-05-07T02:45:20;13.40;99.90
7894;DHT22;51343;51.396;6.656;2023-05-07T02:47:46;13.30;99.90
7894;DHT22;51343;51.396;6.656;2023-05-07T02:50:14;13.30;99.90
7894;DHT22;51343;51.396;6.656;2023-05-07T02:52:41;13.30;99.90
7894;DHT22;51343;51.396;6.656;2023-05-07T02:55:08;13.30;99.90
7894;DHT22;51343;51.396;6.656;2023-05-07T02:57:35;13.30;99.90
7894;DHT22;51343;51.396;6.656;2023-05-07T03:00:09;13.30;99.90
7894;DHT22;51343;51.396;6.656;2023-05-07T03:02:36;13.20;99.90
7894;DHT22;51343;51.396;6.656;2023-05-07T03:05:03;13.20;99.90
7894;DHT22;51343;51.396;6.656;2023-05-07T03:07:31;13.20;99.90
7894;DHT22;51343;51.396;6.656;2023-05-07T03:09:58;13.20;99.90
7894;DHT22;51343;51.396;6.656;2023-05-07T03:12:25;13.20;99.90
7894;DHT22;51343;51.396;6.656;2023-05-07T03:14:52;13.20;99.90
7894;DHT22;51343;51.396;6.656;2023-05-07T03:17:18;13.20;99.90
7894;DHT22;51343;51.396;6.656;2023-05-07T03:19:45;13.20;99.90
7894;DHT22;51343;51.396;6.656;2023-05-07T03:22:11;13.10;99.90
7894;DHT22;51343;51.396;6.656;2023-05-07T03:24:39;13.20;99.90
7894;DHT22;51343;51.396;6.656;2023-05-07T03:27:06;13.10;99.90
7894;DHT22;51343;51.396;6.656;2023-05-07T03:29:33;13.20;99.90
7894;DHT22;51343;51.396;6.656;2023-05-07T03:31:59;13.20;99.90
7894;DHT22;51343;51.396;6.656;2023-05-07T03:34:26;13.20;99.90
7894;DHT22;51343;51.396;6.656;2023-05-07T03:36:53;13.10;99.90
7894;DHT22;51343;51.396;6.656;2023-05-07T03:39:19;13.10;99.90
7894;DHT22;51343;51.396;6.656;2023-05-07T03:41:47;13.10;99.90
7894;DHT22;51343;51.396;6.656;2023-05-07T03:44:14;13.20;99.90
7894;DHT22;51343;51.396;6.656;2023-05-07T03:46:40;13.20;99.90
7894;DHT22;51343;51.396;6.656;2023-05-07T03:49:07;13.10;99.90
7894;DHT22;51343;51.396;6.656;2023-05-07T03:51:33;13.10;99.90
7894;DHT22;51343;51.396;6.656;2023-05-07T03:54:01;13.10;99.90
7894;DHT22;51343;51.396;6.656;2023-05-07T03:56:27;13.10;99.90
7894;DHT22;51343;51.396;6.656;2023-05-07T03:58:56;13.10;99.90
7894;DHT22;51343;51.396;6.656;2023-05-07T04:01:22;13.10;99.90
7894;DHT22;51343;51.396;6.656;2023-05-07T04:03:49;13.10;99.90
7894;DHT22;51343;51.396;6.656;2023-05-07T04:06:16;13.10;99.90
7894;DHT22;51343;51.396;6.656;2023-05-07T04:08:42;13.10;99.90
7894;DHT22;51343;51.396;6.656;2023-05-07T04:11:09;13.10;99.90
7894;DHT22;51343;51.396;6.656;2023-05-07T04:13:36;13.10;99.90
7894;DHT22;51343;51.396;6.656;2023-05-07T04:16:04;13.20;99.90
7894;DHT22;51343;51.396;6.656;2023-05-07T04:18:31;13.20;99.90
7894;DHT22;51343;51.396;6.656;2023-05-07T04:20:58;13.20;99.90
7894;DHT22;51343;51.396;6.656;2023-05-07T04:23:24;13.20;99.90
7894;DHT22;51343;51.396;6.656;2023-05-07T04:25:51;13.20;99.90
7894;DHT22;51343;51.396;6.656;2023-05-07T04:28:19;13.20;99.90
7894;DHT22;51343;51.396;6.656;2023-05-07T04:30:46;13.20;99.90
7894;DHT22;51343;51.396;6.656;2023-05-07T04:33:14;13.20;99.90
7894;DHT22;51343;51.396;6.656;2023-05-07T04:35:42;13.30;99.90
7894;DHT22;51343;51.396;6.656;2023-05-07T04:38:08;13.30;99.90
7894;DHT22;51343;51.396;6.656;2023-05-07T04:40:35;13.30;99.90
7894;DHT22;51343;51.396;6.656;2023-05-07T04:43:02;13.30;99.90
7894;DHT22;51343;51.396;6.656;2023-05-07T04:45:28;13.40;99.90
7894;DHT22;51343;51.396;6.656;2023-05-07T04:47:55;13.40;99.90
7894;DHT22;51343;51.396;6.656;2023-05-07T04:50:23;13.40;99.90
7894;DHT22;51343;51.396;6.656;2023-05-07T04:52:50;13.40;99.90
7894;DHT22;51343;51.396;6.656;2023-05-07T04:55:17;13.50;99.90
7894;DHT22;51343;51.396;6.656;2023-05-07T04:57:43;13.50;99.90
7894;DHT22;51343;51.396;6.656;2023-05-07T05:00:10;13.50;99.90
7894;DHT22;51343;51.396;6.656;2023-05-07T05:02:39;13.60;99.90
7894;DHT22;51343;51.396;6.656;2023-05-07T05:05:06;13.60;99.90
7894;DHT22;51343;51.396;6.656;2023-05-07T05:07:34;13.70;99.90
7894;DHT22;51343;51.396;6.656;2023-05-07T05:10:01;13.70;99.90
7894;DHT22;51343;51.396;6.656;2023-05-07T05:12:28;13.80;99.90
7894;DHT22;51343;51.396;6.656;2023-05-07T05:14:55;13.70;99.90
7894;DHT22;51343;51.396;6.656;2023-05-07T05:17:22;13.80;99.90
7894;DHT22;51343;51.396;6.656;2023-05-07T05:19:48;13.90;99.90
7894;DHT22;51343;51.396;6.656;2023-05-07T05:22:15;13.90;99.90
7894;DHT22;51343;51.396;6.656;2023-05-07T05:24:43;14.00;99.90
7894;DHT22;51343;51.396;6.656;2023-05-07T05:27:09;14.00;99.90
7894;DHT22;51343;51.396;6.656;2023-05-07T05:29:36;14.00;99.90
7894;DHT22;51343;51.396;6.656;2023-05-07T05:32:03;14.10;99.90
7894;DHT22;51343;51.396;6.656;2023-05-07T05:34:29;14.20;99.90
7894;DHT22;51343;51.396;6.656;2023-05-07T05:36:56;14.20;99.90
7894;DHT22;51343;51.396;6.656;2023-05-07T05:39:23;14.20;99.90
7894;DHT22;51343;51.396;6.656;2023-05-07T05:41:51;14.30;99.90
7894;DHT22;51343;51.396;6.656;2023-05-07T05:44:17;14.30;99.90
7894;DHT22;51343;51.396;6.656;2023-05-07T05:46:44;14.40;99.90
7894;DHT22;51343;51.396;6.656;2023-05-07T05:49:11;14.50;99.90
7894;DHT22;51343;51.396;6.656;2023-05-07T05:51:37;14.60;99.90
7894;DHT22;51343;51.396;6.656;2023-05-07T05:54:04;14.70;99.90
7894;DHT22;51343;51.396;6.656;2023-05-07T05:56:31;14.80;99.90
7894;DHT22;51343;51.396;6.656;2023-05-07T05:58:58;14.90;99.90
7894;DHT22;51343;51.396;6.656;2023-05-07T06:01:25;15.00;99.90
7894;DHT22;51343;51.396;6.656;2023-05-07T06:03:52;15.10;99.90
7894;DHT22;51343;51.396;6.656;2023-05-07T06:06:19;15.30;99.90
7894;DHT22;51343;51.396;6.656;2023-05-07T06:08:45;15.30;99.90
7894;DHT22;51343;51.396;6.656;2023-05-07T06:11:12;15.30;99.90
7894;DHT22;51343;51.396;6.656;2023-05-07T06:13:38;15.40;99.90
7894;DHT22;51343;51.396;6.656;2023-05-07T06:16:07;15.40;99.90
7894;DHT22;51343;51.396;6.656;2023-05-07T06:18:33;15.50;99.90
7894;DHT22;51343;51.396;6.656;2023-05-07T06:21:01;15.40;99.90
7894;DHT22;51343;51.396;6.656;2023-05-07T06:23:27;15.50;99.90
7894;DHT22;51343;51.396;6.656;2023-05-07T06:25:54;15.40;99.90
7894;DHT22;51343;51.396;6.656;2023-05-07T06:28:21;15.40;99.90
7894;DHT22;51343;51.396;6.656;2023-05-07T06:30:47;15.50;99.90
7894;DHT22;51343;51.396;6.656;2023-05-07T06:33:16;15.50;99.90
7894;DHT22;51343;51.396;6.656;2023-05-07T06:35:45;15.50;99.90
7894;DHT22;51343;51.396;6.656;2023-05-07T06:38:11;15.50;99.90
7894;DHT22;51343;51.396;6.656;2023-05-07T06:40:38;15.60;99.90
7894;DHT22;51343;51.396;6.656;2023-05-07T06:43:04;15.70;99.90
7894;DHT22;51343;51.396;6.656;2023-05-07T06:45:31;15.70;99.90
7894;DHT22;51343;51.396;6.656;2023-05-07T06:47:57;15.80;99.90
7894;DHT22;51343;51.396;6.656;2023-05-07T06:50:26;15.90;99.90
7894;DHT22;51343;51.396;6.656;2023-05-07T06:52:52;15.90;95.40
7894;DHT22;51343;51.396;6.656;2023-05-07T06:55:19;16.00;76.80
7894;DHT22;51343;51.396;6.656;2023-05-07T06:57:46;16.10;68.90
7894;DHT22;51343;51.396;6.656;2023-05-07T07:00:13;16.10;10.40
7894;DHT22;51343;51.396;6.656;2023-05-07T07:02:39;16.20;3.80
7894;DHT22;51343;51.396;6.656;2023-05-07T07:05:06;16.30;17.80
7894;DHT22;51343;51.396;6.656;2023-05-07T07:07:34;16.30;1.00
7894;DHT22;51343;51.396;6.656;2023-05-07T07:10:01;16.20;1.00
7894;DHT22;51343;51.396;6.656;2023-05-07T07:12:29;16.20;1.00
7894;DHT22;51343;51.396;6.656;2023-05-07T07:14:56;16.30;1.00
7894;DHT22;51343;51.396;6.656;2023-05-07T07:17:22;16.40;1.00
7894;DHT22;51343;51.396;6.656;2023-05-07T07:19:49;16.50;1.00
7894;DHT22;51343;51.396;6.656;2023-05-07T07:22:16;16.60;99.90
7894;DHT22;51343;51.396;6.656;2023-05-07T07:24:44;16.80;1.00
7894;DHT22;51343;51.396;6.656;2023-05-07T07:27:11;17.00;99.90
7894;DHT22;51343;51.396;6.656;2023-05-07T07:29:38;17.10;37.70
7894;DHT22;51343;51.396;6.656;2023-05-07T07:32:04;17.20;99.90
7894;DHT22;51343;51.396;6.656;2023-05-07T07:34:31;17.20;99.90
7894;DHT22;51343;51.396;6.656;2023-05-07T07:36:58;17.20;1.00
7894;DHT22;51343;51.396;6.656;2023-05-07T07:39:30;17.30;1.00
7894;DHT22;51343;51.396;6.656;2023-05-07T07:41:58;17.40;1.00
7894;DHT22;51343;51.396;6.656;2023-05-07T07:44:25;17.40;1.00
7894;DHT22;51343;51.396;6.656;2023-05-07T07:46:52;17.50;1.00
7894;DHT22;51343;51.396;6.656;2023-05-07T07:49:18;17.60;1.00
7894;DHT22;51343;51.396;6.656;2023-05-07T07:51:45;17.60;1.00
7894;DHT22;51343;51.396;6.656;2023-05-07T07:54:12;17.70;1.00
7894;DHT22;51343;51.396;6.656;2023-05-07T07:56:38;17.70;99.90
7894;DHT22;51343;51.396;6.656;2023-05-07T07:59:06;17.90;99.90
7894;DHT22;51343;51.396;6.656;2023-05-07T08:01:33;18.00;99.90
7894;DHT22;51343;51.396;6.656;2023-05-07T08:04:00;18.10;99.90
7894;DHT22;51343;51.396;6.656;2023-05-07T08:06:28;18.20;99.90
7894;DHT22;51343;51.396;6.656;2023-05-07T08:08:55;18.30;99.90
7894;DHT22;51343;51.396;6.656;2023-05-07T08:11:21;18.40;99.90
7894;DHT22;51343;51.396;6.656;2023-05-07T08:13:48;18.50;99.90
7894;DHT22;51343;51.396;6.656;2023-05-07T08:16:17;18.70;99.90
7894;DHT22;51343;51.396;6.656;2023-05-07T08:18:44;18.80;99.90
7894;DHT22;51343;51.396;6.656;2023-05-07T08:21:11;18.80;99.90
7894;DHT22;51343;51.396;6.656;2023-05-07T08:23:38;18.60;99.90
7894;DHT22;51343;51.396;6.656;2023-05-07T08:26:04;18.60;99.90
7894;DHT22;51343;51.396;6.656;2023-05-07T08:28:31;18.60;99.90
7894;DHT22;51343;51.396;6.656;2023-05-07T08:30:58;18.80;99.90
7894;DHT22;51343;51.396;6.656;2023-05-07T08:33:27;18.70;99.90
7894;DHT22;51343;51.396;6.656;2023-05-07T08:35:54;18.90;99.90
7894;DHT22;51343;51.396;6.656;2023-05-07T08:38:20;19.00;99.90
7894;DHT22;51343;51.396;6.656;2023-05-07T08:40:47;19.20;99.90
7894;DHT22;51343;51.396;6.656;2023-05-07T08:43:14;19.20;99.90
7894;DHT22;51343;51.396;6.656;2023-05-07T08:45:41;19.20;99.90
7894;DHT22;51343;51.396;6.656;2023-05-07T08:48:08;19.20;1.00
7894;DHT22;51343;51.396;6.656;2023-05-07T08:50:36;19.30;99.90
7894;DHT22;51343;51.396;6.656;2023-05-07T08:53:03;19.40;81.00
7894;DHT22;51343;51.396;6.656;2023-05-07T08:55:30;19.60;9.50
7894;DHT22;51343;51.396;6.656;2023-05-07T08:57:58;19.60;3.20
7894;DHT22;51343;51.396;6.656;2023-05-07T09:00:25;19.60;48.00
7894;DHT22;51343;51.396;6.656;2023-05-07T09:02:51;19.70;1.00
7894;DHT22;51343;51.396;6.656;2023-05-07T09:05:18;19.90;79.50
7894;DHT22;51343;51.396;6.656;2023-05-07T09:07:46;20.00;1.00
7894;DHT22;51343;51.396;6.656;2023-05-07T09:10:13;20.10;1.00
7894;DHT22;51343;51.396;6.656;2023-05-07T09:12:40;20.20;1.00
7894;DHT22;51343;51.396;6.656;2023-05-07T09:15:08;20.40;1.00
7894;DHT22;51343;51.396;6.656;2023-05-07T09:17:35;20.50;1.00
7894;DHT22;51343;51.396;6.656;2023-05-07T09:20:02;20.60;1.00
7894;DHT22;51343;51.396;6.656;2023-05-07T09:22:31;20.70;1.00
7894;DHT22;51343;51.396;6.656;2023-05-07T09:24:59;20.90;1.00
7894;DHT22;51343;51.396;6.656;2023-05-07T09:27:26;20.90;1.00
7894;DHT22;51343;51.396;6.656;2023-05-07T09:29:53;21.00;1.00
7894;DHT22;51343;51.396;6.656;2023-05-07T09:32:20;21.10;1.00
7894;DHT22;51343;51.396;6.656;2023-05-07T09:34:46;21.10;1.00
7894;DHT22;51343;51.396;6.656;2023-05-07T09:37:13;21.20;1.00
7894;DHT22;51343;51.396;6.656;2023-05-07T09:39:40;21.20;1.00
7894;DHT22;51343;51.396;6.656;2023-05-07T09:42:08;21.50;1.00
7894;DHT22;51343;51.396;6.656;2023-05-07T09:44:35;21.80;1.00
7894;DHT22;51343;51.396;6.656;2023-05-07T09:47:04;21.60;1.00
7894;DHT22;51343;51.396;6.656;2023-05-07T09:49:32;21.90;1.00
7894;DHT22;51343;51.396;6.656;2023-05-07T09:52:00;22.00;1.00
7894;DHT22;51343;51.396;6.656;2023-05-07T09:54:27;22.20;1.00
7894;DHT22;51343;51.396;6.656;2023-05-07T09:56:54;22.40;1.00
7894;DHT22;51343;51.396;6.656;2023-05-07T09:59:23;22.30;1.00
7894;DHT22;51343;51.396;6.656;2023-05-07T10:01:50;22.40;1.00
7894;DHT22;51343;51.396;6.656;2023-05-07T10:04:18;22.40;1.00
7894;DHT22;51343;51.396;6.656;2023-05-07T10:06:46;22.40;1.00
7894;DHT22;51343;51.396;6.656;2023-05-07T10:09:13;22.50;1.00
7894;DHT22;51343;51.396;6.656;2023-05-07T10:11:41;22.50;1.00
7894;DHT22;51343;51.396;6.656;2023-05-07T10:14:09;22.60;1.00
7894;DHT22;51343;51.396;6.656;2023-05-07T10:16:37;22.50;1.00
7894;DHT22;51343;51.396;6.656;2023-05-07T10:19:04;22.50;1.00
7894;DHT22;51343;51.396;6.656;2023-05-07T10:21:32;22.60;1.00
7894;DHT22;51343;51.396;6.656;2023-05-07T10:24:03;22.90;1.00
7894;DHT22;51343;51.396;6.656;2023-05-07T10:26:31;22.90;1.00
7894;DHT22;51343;51.396;6.656;2023-05-07T10:28:59;22.90;1.00
7894;DHT22;51343;51.396;6.656;2023-05-07T10:31:42;22.90;1.00
7894;DHT22;51343;51.396;6.656;2023-05-07T10:34:13;22.90;1.00
7894;DHT22;51343;51.396;6.656;2023-05-07T10:36:42;23.10;1.00
7894;DHT22;51343;51.396;6.656;2023-05-07T10:39:09;23.40;1.00
7894;DHT22;51343;51.396;6.656;2023-05-07T10:41:36;23.70;1.00
7894;DHT22;51343;51.396;6.656;2023-05-07T10:44:03;24.20;1.00
7894;DHT22;51343;51.396;6.656;2023-05-07T10:46:29;24.50;1.00
7894;DHT22;51343;51.396;6.656;2023-05-07T10:49:08;24.60;1.00
7894;DHT22;51343;51.396;6.656;2023-05-07T10:51:36;24.70;1.00
7894;DHT22;51343;51.396;6.656;2023-05-07T10:54:19;24.70;1.00
7894;DHT22;51343;51.396;6.656;2023-05-07T10:56:47;24.50;1.00
7894;DHT22;51343;51.396;6.656;2023-05-07T10:59:37;24.10;1.00
7894;DHT22;51343;51.396;6.656;2023-05-07T11:02:08;24.10;1.00
7894;DHT22;51343;51.396;6.656;2023-05-07T11:04:37;23.90;1.00
7894;DHT22;51343;51.396;6.656;2023-05-07T11:10:05;23.80;1.00
7894;DHT22;51343;51.396;6.656;2023-05-07T11:15:39;23.90;1.00
7894;DHT22;51343;51.396;6.656;2023-05-07T11:18:07;23.80;1.00
7894;DHT22;51343;51.396;6.656;2023-05-07T11:26:17;23.90;1.00
7894;DHT22;51343;51.396;6.656;2023-05-07T11:28:44;23.90;1.00
7894;DHT22;51343;51.396;6.656;2023-05-07T11:31:10;23.50;1.00
7894;DHT22;51343;51.396;6.656;2023-05-07T11:33:37;23.30;1.00
7894;DHT22;51343;51.396;6.656;2023-05-07T11:36:04;23.30;1.00
7894;DHT22;51343;51.396;6.656;2023-05-07T11:38:34;23.20;1.00
7894;DHT22;51343;51.396;6.656;2023-05-07T11:41:01;23.00;1.00
7894;DHT22;51343;51.396;6.656;2023-05-07T11:43:31;22.90;1.00
7894;DHT22;51343;51.396;6.656;2023-05-07T11:46:04;22.80;1.00
7894;DHT22;51343;51.396;6.656;2023-05-07T11:48:31;22.80;1.00
7894;DHT22;51343;51.396;6.656;2023-05-07T11:51:00;22.90;1.00
7894;DHT22;51343;51.396;6.656;2023-05-07T11:53:27;22.90;1.00
7894;DHT22;51343;51.396;6.656;2023-05-07T11:55:54;23.10;1.00
7894;DHT22;51343;51.396;6.656;2023-05-07T11:58:21;23.20;1.00
7894;DHT22;51343;51.396;6.656;2023-05-07T12:00:50;23.10;1.00
7894;DHT22;51343;51.396;6.656;2023-05-07T12:03:17;22.80;1.00
7894;DHT22;51343;51.396;6.656;2023-05-07T12:05:44;22.70;1.00
7894;DHT22;51343;51.396;6.656;2023-05-07T12:08:13;22.60;1.00
7894;DHT22;51343;51.396;6.656;2023-05-07T12:10:40;22.50;1.00
7894;DHT22;51343;51.396;6.656;2023-05-07T12:13:13;22.30;1.00
7894;DHT22;51343;51.396;6.656;2023-05-07T12:15:40;22.20;1.00
7894;DHT22;51343;51.396;6.656;2023-05-07T12:18:08;22.10;1.00
7894;DHT22;51343;51.396;6.656;2023-05-07T12:20:35;21.90;1.00
7894;DHT22;51343;51.396;6.656;2023-05-07T12:23:02;22.00;1.00
7894;DHT22;51343;51.396;6.656;2023-05-07T12:25:29;22.00;1.00
7894;DHT22;51343;51.396;6.656;2023-05-07T12:27:56;22.00;1.00
7894;DHT22;51343;51.396;6.656;2023-05-07T12:30:24;21.90;1.00
7894;DHT22;51343;51.396;6.656;2023-05-07T12:32:52;21.80;1.00
7894;DHT22;51343;51.396;6.656;2023-05-07T12:35:27;22.00;1.00
7894;DHT22;51343;51.396;6.656;2023-05-07T12:37:56;22.10;1.00
7894;DHT22;51343;51.396;6.656;2023-05-07T12:40:34;22.20;1.00
7894;DHT22;51343;51.396;6.656;2023-05-07T12:43:01;22.10;1.00
7894;DHT22;51343;51.396;6.656;2023-05-07T12:45:28;21.90;1.00
7894;DHT22;51343;51.396;6.656;2023-05-07T12:47:57;21.80;1.00
7894;DHT22;51343;51.396;6.656;2023-05-07T12:50:31;21.80;1.00
7894;DHT22;51343;51.396;6.656;2023-05-07T12:52:59;21.70;1.00
7894;DHT22;51343;51.396;6.656;2023-05-07T12:55:25;21.60;1.00
7894;DHT22;51343;51.396;6.656;2023-05-07T12:57:53;21.60;1.00
7894;DHT22;51343;51.396;6.656;2023-05-07T13:00:32;21.50;1.00
7894;DHT22;51343;51.396;6.656;2023-05-07T13:02:58;21.40;1.00
7894;DHT22;51343;51.396;6.656;2023-05-07T13:05:25;21.50;1.00
7894;DHT22;51343;51.396;6.656;2023-05-07T13:07:53;21.50;1.00
7894;DHT22;51343;51.396;6.656;2023-05-07T13:10:21;21.50;1.00
7894;DHT22;51343;51.396;6.656;2023-05-07T13:12:48;21.40;1.00
7894;DHT22;51343;51.396;6.656;2023-05-07T13:15:14;21.50;1.00
7894;DHT22;51343;51.396;6.656;2023-05-07T13:17:41;21.50;1.00
7894;DHT22;51343;51.396;6.656;2023-05-07T13:20:08;21.60;1.00
7894;DHT22;51343;51.396;6.656;2023-05-07T13:22:35;21.60;1.00
7894;DHT22;51343;51.396;6.656;2023-05-07T13:25:03;21.60;1.00
7894;DHT22;51343;51.396;6.656;2023-05-07T13:27:30;21.60;1.00
7894;DHT22;51343;51.396;6.656;2023-05-07T13:29:57;21.40;1.00
7894;DHT22;51343;51.396;6.656;2023-05-07T13:32:24;21.30;1.00
7894;DHT22;51343;51.396;6.656;2023-05-07T13:34:50;21.10;1.00
7894;DHT22;51343;51.396;6.656;2023-05-07T13:37:17;21.10;1.00
7894;DHT22;51343;51.396;6.656;2023-05-07T13:39:44;21.20;1.00
7894;DHT22;51343;51.396;6.656;2023-05-07T13:42:12;21.10;1.00
7894;DHT22;51343;51.396;6.656;2023-05-07T13:44:40;21.20;1.00
7894;DHT22;51343;51.396;6.656;2023-05-07T13:47:09;21.20;1.00
7894;DHT22;51343;51.396;6.656;2023-05-07T13:49:35;21.10;1.00
7894;DHT22;51343;51.396;6.656;2023-05-07T13:52:03;21.10;1.00
7894;DHT22;51343;51.396;6.656;2023-05-07T13:54:29;21.20;1.00
7894;DHT22;51343;51.396;6.656;2023-05-07T13:56:56;21.10;1.00
7894;DHT22;51343;51.396;6.656;2023-05-07T13:59:24;21.10;1.00
7894;DHT22;51343;51.396;6.656;2023-05-07T14:01:50;21.00;1.00
7894;DHT22;51343;51.396;6.656;2023-05-07T14:04:17;20.80;1.00
7894;DHT22;51343;51.396;6.656;2023-05-07T14:06:44;20.60;1.00
7894;DHT22;51343;51.396;6.656;2023-05-07T14:09:10;20.40;1.00
7894;DHT22;51343;51.396;6.656;2023-05-07T14:11:38;20.10;1.00
7894;DHT22;51343;51.396;6.656;2023-05-07T14:14:05;19.90;1.00
7894;DHT22;51343;51.396;6.656;2023-05-07T14:16:33;19.70;1.00
7894;DHT22;51343;51.396;6.656;2023-05-07T14:18:59;19.60;1.00
7894;DHT22;51343;51.396;6.656;2023-05-07T14:21:26;19.20;99.90
7894;DHT22;51343;51.396;6.656;2023-05-07T14:23:53;18.80;99.90
7894;DHT22;51343;51.396;6.656;2023-05-07T14:26:21;18.40;1.00
7894;DHT22;51343;51.396;6.656;2023-05-07T14:28:48;17.90;99.90
7894;DHT22;51343;51.396;6.656;2023-05-07T14:31:15;17.70;99.90
7894;DHT22;51343;51.396;6.656;2023-05-07T14:33:43;17.40;3.10
7894;DHT22;51343;51.396;6.656;2023-05-07T14:36:09;17.30;1.00
7894;DHT22;51343;51.396;6.656;2023-05-07T14:38:36;17.20;1.00
7894;DHT22;51343;51.396;6.656;2023-05-07T14:41:03;17.00;62.90
7894;DHT22;51343;51.396;6.656;2023-05-07T14:43:30;17.00;99.90
7894;DHT22;51343;51.396;6.656;2023-05-07T14:45:56;17.00;99.90
7894;DHT22;51343;51.396;6.656;2023-05-07T14:48:23;17.10;99.90
7894;DHT22;51343;51.396;6.656;2023-05-07T14:50:51;17.10;99.90
7894;DHT22;51343;51.396;6.656;2023-05-07T14:53:17;17.20;99.90
7894;DHT22;51343;51.396;6.656;2023-05-07T14:55:44;17.30;99.90
7894;DHT22;51343;51.396;6.656;2023-05-07T14:58:11;17.40;99.90
7894;DHT22;51343;51.396;6.656;2023-05-07T15:00:38;17.40;99.90
7894;DHT22;51343;51.396;6.656;2023-05-07T15:03:05;17.40;99.90
7894;DHT22;51343;51.396;6.656;2023-05-07T15:05:32;17.40;99.90
7894;DHT22;51343;51.396;6.656;2023-05-07T15:08:01;17.40;99.90
7894;DHT22;51343;51.396;6.656;2023-05-07T15:10:27;17.40;99.90
7894;DHT22;51343;51.396;6.656;2023-05-07T15:12:54;17.50;99.90
7894;DHT22;51343;51.396;6.656;2023-05-07T15:15:22;17.50;99.90
7894;DHT22;51343;51.396;6.656;2023-05-07T15:17:48;17.50;99.90
7894;DHT22;51343;51.396;6.656;2023-05-07T15:20:15;17.50;1.00
7894;DHT22;51343;51.396;6.656;2023-05-07T15:22:42;17.50;1.00
7894;DHT22;51343;51.396;6.656;2023-05-07T15:25:10;17.60;27.50
7894;DHT22;51343;51.396;6.656;2023-05-07T15:27:37;17.80;99.90
7894;DHT22;51343;51.396;6.656;2023-05-07T15:30:04;17.80;1.00
7894;DHT22;51343;51.396;6.656;2023-05-07T15:32:31;17.90;1.00
7894;DHT22;51343;51.396;6.656;2023-05-07T15:34:58;17.90;1.00
7894;DHT22;51343;51.396;6.656;2023-05-07T15:37:24;17.90;1.00
7894;DHT22;51343;51.396;6.656;2023-05-07T15:39:51;18.00;1.00
7894;DHT22;51343;51.396;6.656;2023-05-07T15:42:19;18.00;99.90
7894;DHT22;51343;51.396;6.656;2023-05-07T15:44:46;18.00;99.90
7894;DHT22;51343;51.396;6.656;2023-05-07T15:47:13;18.10;1.00
7894;DHT22;51343;51.396;6.656;2023-05-07T15:49:40;18.00;99.90
7894;DHT22;51343;51.396;6.656;2023-05-07T15:52:07;18.00;99.90
7894;DHT22;51343;51.396;6.656;2023-05-07T15:54:35;18.00;99.90
7894;DHT22;51343;51.396;6.656;2023-05-07T15:57:02;17.90;99.90
7894;DHT22;51343;51.396;6.656;2023-05-07T15:59:32;17.80;1.00
7894;DHT22;51343;51.396;6.656;2023-05-07T16:02:00;17.70;99.90
7894;DHT22;51343;51.396;6.656;2023-05-07T16:04:29;17.60;99.90